createdAt,value
2023-05-30T00:01:37.283Z,77707.34
2023-05-30T00:04:11.804Z,77699.25
2023-05-30T00:06:44.896Z,77723.50
2023-05-30T00:09:17.402Z,77707.34
2023-05-30T00:11:50.632Z,77719.47
2023-05-30T00:14:24.376Z,77739.66
2023-05-30T00:16:57.806Z,77745.72
2023-05-30T00:19:32.422Z,77727.53
2023-05-30T00:22:05.527Z,77743.69
2023-05-30T00:24:38.175Z,77767.91
2023-05-30T00:27:11.945Z,77755.81
2023-05-30T00:29:46.384Z,77755.81
2023-05-30T00:32:18.982Z,77780.03
2023-05-30T00:34:51.575Z,77759.84
2023-05-30T00:37:24.132Z,77778.00
2023-05-30T00:39:56.603Z,77780.03
2023-05-30T00:42:29.252Z,77780.03
2023-05-30T00:45:01.746Z,77780.03
2023-05-30T00:47:34.784Z,77788.13
2023-05-30T00:50:08.748Z,77792.16
2023-05-30T00:52:41.419Z,77820.41
2023-05-30T00:55:15.022Z,77834.56
2023-05-30T00:57:48.279Z,77834.56
2023-05-30T01:00:21.234Z,77824.47
2023-05-30T01:02:58.487Z,77820.41
2023-05-30T01:05:32.363Z,77824.47
2023-05-30T01:08:05.043Z,77834.56
2023-05-30T01:10:38.624Z,77848.69
2023-05-30T01:13:23.374Z,77864.84
2023-05-30T01:16:04.116Z,77862.84
2023-05-30T01:18:45.075Z,77860.81
2023-05-30T01:21:20.357Z,77860.81
2023-05-30T01:24:20.286Z,77850.72
2023-05-30T01:27:05.571Z,77862.84
2023-05-30T01:29:40.608Z,77860.81
2023-05-30T01:32:13.252Z,77885.03
2023-05-30T01:34:45.986Z,77870.91
2023-05-30T01:37:18.490Z,77881.00
2023-05-30T01:39:51.171Z,77895.13
2023-05-30T01:42:24.904Z,77891.09
2023-05-30T01:45:12.212Z,77909.28
2023-05-30T01:48:00.081Z,77901.19
2023-05-30T01:50:38.599Z,77915.34
2023-05-30T01:53:15.420Z,77901.19
2023-05-30T01:55:52.022Z,77909.28
2023-05-30T01:58:25.136Z,77923.41
2023-05-30T02:00:59.705Z,77925.44
2023-05-30T02:03:32.511Z,77935.53
2023-05-30T02:06:05.345Z,77933.50
2023-05-30T02:08:37.903Z,77961.78
2023-05-30T02:11:11.462Z,77945.63
2023-05-30T02:13:45.529Z,77937.56
2023-05-30T02:16:19.574Z,77935.53
2023-05-30T02:18:53.789Z,77949.66
2023-05-30T02:21:26.373Z,77965.81
2023-05-30T02:23:58.891Z,77969.84
2023-05-30T02:26:31.326Z,77961.78
2023-05-30T02:29:03.941Z,77965.81
2023-05-30T02:31:36.438Z,77949.66
2023-05-30T02:34:08.948Z,77981.97
2023-05-30T02:36:41.365Z,77971.88
2023-05-30T02:39:13.918Z,77975.91
2023-05-30T02:41:46.489Z,77971.88
2023-05-30T02:44:18.980Z,77979.97
2023-05-30T02:46:51.868Z,77963.81
2023-05-30T02:49:24.299Z,77971.88
2023-05-30T02:51:56.763Z,77969.84
2023-05-30T02:54:29.318Z,77973.91
2023-05-30T02:57:02.878Z,77975.91
2023-05-30T02:59:35.418Z,77986.00
2023-05-30T03:02:07.919Z,77969.84
2023-05-30T03:04:46.603Z,77990.06
2023-05-30T03:07:19.373Z,77979.97
2023-05-30T03:09:51.909Z,78002.16
2023-05-30T03:12:24.438Z,77981.97
2023-05-30T03:14:57.090Z,77996.13
2023-05-30T03:17:29.516Z,77992.06
2023-05-30T03:20:02.307Z,78000.16
2023-05-30T03:22:35.753Z,77992.06
2023-05-30T03:25:09.345Z,77986.00
2023-05-30T03:27:42.498Z,77981.97
2023-05-30T03:30:15.831Z,77973.91
2023-05-30T03:32:49.737Z,77969.84
2023-05-30T03:35:22.334Z,77955.72
2023-05-30T03:37:54.769Z,77941.59
2023-05-30T03:40:27.220Z,77953.69
2023-05-30T03:43:00.565Z,77939.56
2023-05-30T03:45:33.283Z,77921.41
2023-05-30T03:48:06.060Z,77919.38
2023-05-30T03:50:38.659Z,77911.28
2023-05-30T03:53:11.173Z,77911.28
2023-05-30T03:55:43.715Z,77897.16
2023-05-30T03:58:16.173Z,77919.38
2023-05-30T04:00:48.641Z,77899.19
2023-05-30T04:03:21.292Z,77907.25
2023-05-30T04:05:54.396Z,77905.25
2023-05-30T04:08:26.829Z,77899.19
2023-05-30T04:10:59.499Z,77860.81
2023-05-30T04:13:32.158Z,77860.81
2023-05-30T04:16:04.807Z,77876.97
2023-05-30T04:18:44.493Z,77842.63
2023-05-30T04:21:17.040Z,77830.53
2023-05-30T04:23:49.530Z,77816.38
2023-05-30T04:26:26.425Z,77826.47
2023-05-30T04:28:58.972Z,77844.66
2023-05-30T04:31:31.556Z,77806.28
2023-05-30T04:34:04.199Z,77800.22
2023-05-30T04:36:38.029Z,77806.28
2023-05-30T04:39:10.495Z,77812.34
2023-05-30T04:41:42.983Z,77788.13
2023-05-30T04:44:15.501Z,77778.00
2023-05-30T04:46:47.979Z,77747.72
2023-05-30T04:49:20.559Z,77747.72
2023-05-30T04:51:53.007Z,77741.66
2023-05-30T04:54:28.283Z,77711.38
2023-05-30T04:57:00.690Z,77721.47
2023-05-30T04:59:33.246Z,77715.41
2023-05-30T05:02:06.141Z,77675.03
2023-05-30T05:04:38.968Z,77711.38
2023-05-30T05:07:11.709Z,77703.31
2023-05-30T05:09:44.325Z,77687.16
2023-05-30T05:12:17.027Z,77677.06
2023-05-30T05:14:51.354Z,77662.91
2023-05-30T05:17:24.266Z,77646.75
2023-05-30T05:19:58.132Z,77681.09
2023-05-30T05:22:32.712Z,77630.59
2023-05-30T05:25:05.982Z,77658.88
2023-05-30T05:27:40.660Z,77668.97
2023-05-30T05:30:13.727Z,77666.94
2023-05-30T05:32:47.057Z,77640.69
2023-05-30T05:35:19.828Z,77624.53
2023-05-30T05:37:52.385Z,77586.19
2023-05-30T05:40:25.095Z,77622.53
2023-05-30T05:42:57.577Z,77624.53
2023-05-30T05:45:30.179Z,77590.22
2023-05-30T05:48:02.893Z,77574.06
2023-05-30T05:50:35.673Z,77586.19
2023-05-30T05:53:08.165Z,77608.38
2023-05-30T05:55:40.649Z,77594.25
2023-05-30T05:58:13.886Z,77584.16
2023-05-30T06:00:46.592Z,77596.28
2023-05-30T06:03:19.364Z,77624.53
2023-05-30T06:05:52.036Z,77620.50
2023-05-30T06:08:24.488Z,77598.28
2023-05-30T06:10:57.177Z,77602.34
2023-05-30T06:13:29.744Z,77604.34
2023-05-30T06:16:02.300Z,77594.25
2023-05-30T06:18:34.837Z,77582.13
2023-05-30T06:21:07.863Z,77580.13
2023-05-30T06:23:40.468Z,77547.81
2023-05-30T06:26:13.000Z,77553.88
2023-05-30T06:28:50.220Z,77507.44
2023-05-30T06:31:22.789Z,77511.47
2023-05-30T06:33:55.426Z,77489.25
2023-05-30T06:36:27.965Z,77456.94
2023-05-30T06:39:00.511Z,77463.00
2023-05-30T06:41:35.782Z,77513.50
2023-05-30T06:44:08.250Z,77469.06
2023-05-30T06:46:40.898Z,77440.78
2023-05-30T06:49:13.386Z,77432.72
2023-05-30T06:51:45.952Z,77384.25
2023-05-30T06:54:18.408Z,77353.97
2023-05-30T06:56:51.767Z,77360.03
2023-05-30T06:59:24.183Z,77392.34
2023-05-30T07:01:57.084Z,77321.66
2023-05-30T07:04:29.752Z,77408.50
2023-05-30T07:07:02.315Z,77390.31
2023-05-30T07:09:34.969Z,77345.91
2023-05-30T07:12:07.978Z,77289.34
2023-05-30T07:14:41.060Z,77287.34
2023-05-30T07:17:13.557Z,77358.00
2023-05-30T07:19:46.418Z,77307.53
2023-05-30T07:22:19.115Z,77287.34
2023-05-30T07:24:51.588Z,77347.91
2023-05-30T07:27:24.453Z,77347.91
2023-05-30T07:29:56.904Z,77305.50
2023-05-30T07:32:29.540Z,77311.56
2023-05-30T07:35:02.075Z,77277.25
2023-05-30T07:37:37.924Z,77251.00
2023-05-30T07:40:10.704Z,77204.56
2023-05-30T07:42:43.133Z,77200.53
2023-05-30T07:45:15.970Z,77259.06
2023-05-30T07:47:48.522Z,77263.13
2023-05-30T07:50:21.062Z,77337.81
2023-05-30T07:52:53.535Z,77343.88
2023-05-30T07:55:27.363Z,77360.03
2023-05-30T07:57:59.925Z,77303.50
2023-05-30T08:00:32.418Z,77317.63
2023-05-30T08:03:04.991Z,77315.59
2023-05-30T08:05:37.510Z,77279.25
2023-05-30T08:08:09.981Z,77271.19
2023-05-30T08:10:42.429Z,77255.03
2023-05-30T08:13:15.612Z,77176.28
2023-05-30T08:15:48.133Z,77141.97
2023-05-30T08:18:22.197Z,77133.88
2023-05-30T08:20:56.018Z,77107.66
2023-05-30T08:23:28.767Z,77077.34
2023-05-30T08:26:01.608Z,77085.44
2023-05-30T08:28:34.465Z,77162.16
2023-05-30T08:31:07.154Z,77121.78
2023-05-30T08:33:39.767Z,77204.56
2023-05-30T08:36:12.243Z,77200.53
2023-05-30T08:38:44.712Z,77224.75
2023-05-30T08:41:17.197Z,77166.19
2023-05-30T08:43:50.826Z,77133.88
2023-05-30T08:46:24.505Z,77224.75
2023-05-30T08:48:57.189Z,77160.13
2023-05-30T08:51:31.401Z,77174.28
2023-05-30T08:54:06.213Z,77160.13
2023-05-30T08:56:43.675Z,77204.56
2023-05-30T08:59:20.220Z,77214.66
2023-05-30T09:01:55.419Z,77210.63
2023-05-30T09:04:28.601Z,77246.97
2023-05-30T09:07:04.466Z,77200.53
2023-05-30T09:09:37.210Z,77168.22
2023-05-30T09:12:12.891Z,77176.28
2023-05-30T09:14:45.498Z,77164.19
2023-05-30T09:17:19.224Z,77146.00
2023-05-30T09:19:51.705Z,77137.94
2023-05-30T09:22:26.116Z,77081.41
2023-05-30T09:25:06.769Z,77097.53
2023-05-30T09:27:39.455Z,77117.75
2023-05-30T09:30:12.850Z,77036.97
2023-05-30T09:33:04.491Z,77055.16
2023-05-30T09:35:37.407Z,77018.81
2023-05-30T09:38:09.848Z,77008.72
2023-05-30T09:40:42.602Z,77032.94
2023-05-30T09:43:16.246Z,77024.88
2023-05-30T09:45:50.014Z,76978.44
2023-05-30T09:48:22.609Z,76974.38
2023-05-30T09:50:58.376Z,76934.00
2023-05-30T09:53:33.580Z,76934.00
2023-05-30T09:56:08.826Z,76915.84
2023-05-30T09:58:41.714Z,76932.00
2023-05-30T10:01:33.124Z,76889.59
2023-05-30T10:04:15.578Z,76869.41
2023-05-30T10:06:51.146Z,76845.19
2023-05-30T10:09:25.003Z,76843.16
2023-05-30T10:11:58.129Z,76843.16
2023-05-30T10:14:30.734Z,76889.59
2023-05-30T10:17:08.502Z,76845.19
2023-05-30T10:19:47.435Z,76816.91
2023-05-30T10:22:22.091Z,76780.56
2023-05-30T10:24:56.967Z,76730.09
2023-05-30T10:27:33.924Z,76754.31
2023-05-30T10:30:08.359Z,76770.47
2023-05-30T10:32:45.748Z,76859.31
2023-05-30T10:35:20.488Z,76820.94
2023-05-30T10:37:53.970Z,76796.72
2023-05-30T10:40:37.785Z,76762.41
2023-05-30T10:43:13.216Z,76806.81
2023-05-30T10:46:11.389Z,76802.78
2023-05-30T10:48:54.749Z,76746.25
2023-05-30T10:51:27.300Z,76770.47
2023-05-30T10:54:00.817Z,76730.09
2023-05-30T10:56:38.902Z,76699.81
2023-05-30T10:59:16.086Z,76657.44
2023-05-30T11:02:05.805Z,76709.91
2023-05-30T11:04:46.586Z,76701.84
2023-05-30T11:07:19.472Z,76713.94
2023-05-30T11:10:09.114Z,76675.59
2023-05-30T11:12:49.342Z,76703.84
2023-05-30T11:15:35.510Z,76709.91
2023-05-30T11:18:19.186Z,76677.63
2023-05-30T11:20:56.328Z,76667.53
2023-05-30T11:23:30.519Z,76617.06
2023-05-30T11:26:03.507Z,76665.50
2023-05-30T11:28:37.125Z,76613.00
2023-05-30T11:31:20.678Z,76647.34
2023-05-30T11:33:54.333Z,76570.63
2023-05-30T11:36:26.954Z,76544.38
2023-05-30T11:39:00.068Z,76631.19
2023-05-30T11:41:32.626Z,76530.25
2023-05-30T11:44:05.563Z,76499.97
2023-05-30T11:46:38.239Z,76495.91
2023-05-30T11:49:10.833Z,76538.31
2023-05-30T11:51:43.642Z,76536.28
2023-05-30T11:54:16.322Z,76524.19
2023-05-30T11:56:52.847Z,76534.28
2023-05-30T11:59:27.717Z,76528.22
2023-05-30T12:02:01.499Z,76483.81
2023-05-30T12:04:36.204Z,76419.22
2023-05-30T12:07:10.041Z,76457.56
2023-05-30T12:09:42.869Z,76399.03
2023-05-30T12:12:16.166Z,76372.78
2023-05-30T12:14:51.494Z,76392.97
2023-05-30T12:17:25.418Z,76330.38
2023-05-30T12:20:00.690Z,76271.84
2023-05-30T12:22:33.390Z,76275.88
2023-05-30T12:25:10.200Z,76269.84
2023-05-30T12:27:44.543Z,76241.56
2023-05-30T12:30:19.154Z,76320.31
2023-05-30T12:32:51.718Z,76271.84
2023-05-30T12:35:27.764Z,76241.56
2023-05-30T12:38:01.372Z,76271.84
2023-05-30T12:40:35.303Z,76316.25
2023-05-30T12:43:07.938Z,76302.13
2023-05-30T12:45:44.302Z,76312.22
2023-05-30T12:48:16.883Z,76290.03
2023-05-30T12:50:49.678Z,76271.84
2023-05-30T12:53:22.092Z,76221.38
2023-05-30T12:55:54.735Z,76213.31
2023-05-30T12:58:27.218Z,76277.91
2023-05-30T13:01:00.259Z,76185.06
2023-05-30T13:03:32.979Z,76168.91
2023-05-30T13:06:07.126Z,76170.91
2023-05-30T13:08:39.615Z,76183.03
2023-05-30T13:11:12.214Z,76197.16
2023-05-30T13:13:44.705Z,76148.72
2023-05-30T13:16:17.365Z,76132.56
2023-05-30T13:18:49.843Z,76170.91
2023-05-30T13:21:23.546Z,76116.41
2023-05-30T13:23:56.531Z,76082.09
2023-05-30T13:26:28.997Z,76110.38
2023-05-30T13:29:07.706Z,76138.63
2023-05-30T13:31:40.353Z,76116.41
2023-05-30T13:34:13.329Z,76074.03
2023-05-30T13:36:46.545Z,76098.25
2023-05-30T13:39:19.409Z,76059.91
2023-05-30T13:41:51.943Z,76053.84
2023-05-30T13:44:24.463Z,76118.44
2023-05-30T13:46:57.023Z,76057.88
2023-05-30T13:49:34.180Z,76041.75
2023-05-30T13:52:10.981Z,76053.84
2023-05-30T13:54:43.508Z,76009.44
2023-05-30T13:57:16.889Z,76013.47
2023-05-30T13:59:49.366Z,75999.34
2023-05-30T14:02:22.615Z,75983.19
2023-05-30T14:04:58.296Z,75979.16
2023-05-30T14:07:31.118Z,76027.59
2023-05-30T14:10:04.456Z,75948.88
2023-05-30T14:12:37.174Z,75898.44
2023-05-30T14:15:10.129Z,75866.13
2023-05-30T14:17:43.484Z,75906.50
2023-05-30T14:20:16.299Z,75922.66
2023-05-30T14:22:48.827Z,75926.69
2023-05-30T14:25:21.348Z,75876.22
2023-05-30T14:27:53.891Z,75870.16
2023-05-30T14:30:26.826Z,75888.34
2023-05-30T14:33:01.537Z,75932.75
2023-05-30T14:35:35.603Z,75801.53
2023-05-30T14:38:09.072Z,75807.59
2023-05-30T14:40:43.266Z,75910.53
2023-05-30T14:43:15.849Z,75870.16
2023-05-30T14:45:48.532Z,75916.59
2023-05-30T14:48:21.208Z,76001.38
2023-05-30T14:50:53.663Z,76033.66
2023-05-30T14:53:26.246Z,76116.41
2023-05-30T14:55:59.214Z,76088.16
2023-05-30T14:58:32.918Z,76039.72
2023-05-30T15:01:24.680Z,75944.84
2023-05-30T15:03:59.467Z,75999.34
2023-05-30T15:06:32.259Z,75989.25
2023-05-30T15:09:04.768Z,76110.38
2023-05-30T15:11:37.277Z,76134.59
2023-05-30T15:14:09.844Z,76112.38
2023-05-30T15:16:42.500Z,76039.72
2023-05-30T15:19:14.998Z,76039.72
2023-05-30T15:21:47.515Z,76035.69
2023-05-30T15:24:20.081Z,75908.53
2023-05-30T15:26:52.610Z,76019.53
2023-05-30T15:29:25.502Z,76019.53
2023-05-30T15:31:58.184Z,76019.53
2023-05-30T15:34:30.769Z,76051.84
2023-05-30T15:37:03.765Z,76128.53
2023-05-30T15:39:36.360Z,76130.56
2023-05-30T15:42:09.051Z,76055.88
2023-05-30T15:44:41.594Z,76104.31
2023-05-30T15:47:14.166Z,76112.38
2023-05-30T15:49:46.657Z,76094.22
2023-05-30T15:52:19.152Z,76045.78
2023-05-30T15:54:51.693Z,76019.53
2023-05-30T15:57:25.278Z,76029.63
2023-05-30T15:59:57.743Z,75938.78
2023-05-30T16:02:30.690Z,75995.31
2023-05-30T16:05:04.161Z,76025.59
2023-05-30T16:07:38.081Z,76003.38
2023-05-30T16:10:10.737Z,76015.50
2023-05-30T16:12:43.211Z,75934.75
2023-05-30T16:15:15.722Z,75991.28
2023-05-30T16:17:48.881Z,76076.06
2023-05-30T16:20:21.582Z,75963.00
2023-05-30T16:22:54.248Z,75928.69
2023-05-30T16:25:27.485Z,75890.34
2023-05-30T16:27:59.983Z,75829.81
2023-05-30T16:30:32.460Z,75767.22
2023-05-30T16:33:05.250Z,75745.03
2023-05-30T16:35:37.804Z,75811.63
2023-05-30T16:38:10.852Z,75831.81
2023-05-30T16:40:43.803Z,75819.72
2023-05-30T16:43:16.499Z,75839.91
2023-05-30T16:45:49.062Z,75910.53
2023-05-30T16:48:21.572Z,75849.97
2023-05-30T16:50:54.176Z,75862.09
2023-05-30T16:53:26.801Z,75936.78
2023-05-30T16:55:59.802Z,75938.78
2023-05-30T16:58:32.328Z,75858.06
2023-05-30T17:01:05.620Z,75918.63
2023-05-30T17:03:38.269Z,76005.41
2023-05-30T17:06:11.418Z,75888.34
2023-05-30T17:08:43.936Z,75886.31
2023-05-30T17:11:16.516Z,75985.22
2023-05-30T17:13:49.049Z,75987.25
2023-05-30T17:16:21.775Z,76001.38
2023-05-30T17:18:54.350Z,76049.81
2023-05-30T17:21:26.958Z,76047.78
2023-05-30T17:24:02.702Z,76049.81
2023-05-30T17:26:36.830Z,76013.47
2023-05-30T17:29:09.433Z,75944.84
2023-05-30T17:31:42.101Z,76025.59
2023-05-30T17:34:14.591Z,75900.44
2023-05-30T17:36:47.038Z,75833.84
2023-05-30T17:39:19.611Z,75906.50
2023-05-30T17:41:52.064Z,75952.94
2023-05-30T17:44:24.507Z,75952.94
2023-05-30T17:46:57.000Z,75894.38
2023-05-30T17:49:29.940Z,75983.19
2023-05-30T17:52:02.568Z,76027.59
2023-05-30T17:54:35.082Z,76055.88
2023-05-30T17:57:08.216Z,76120.47
2023-05-30T17:59:40.738Z,76076.06
2023-05-30T18:02:13.359Z,76086.16
2023-05-30T18:04:45.858Z,76168.91
2023-05-30T18:07:19.434Z,76162.84
2023-05-30T18:09:54.668Z,76302.13
2023-05-30T18:12:27.587Z,76229.47
2023-05-30T18:15:00.065Z,76221.38
2023-05-30T18:17:32.583Z,76197.16
2023-05-30T18:20:06.764Z,76158.81
2023-05-30T18:22:39.828Z,76156.78
2023-05-30T18:25:15.072Z,76160.81
2023-05-30T18:27:47.780Z,76211.28
2023-05-30T18:30:20.400Z,76162.84
2023-05-30T18:32:56.179Z,76150.75
2023-05-30T18:35:29.013Z,76207.25
2023-05-30T18:38:02.070Z,76267.81
2023-05-30T18:40:34.706Z,76257.72
2023-05-30T18:43:07.187Z,76221.38
2023-05-30T18:45:39.746Z,76265.78
2023-05-30T18:48:12.409Z,76314.25
2023-05-30T18:50:45.820Z,76372.78
2023-05-30T18:53:18.304Z,76326.34
2023-05-30T18:55:50.995Z,76386.91
2023-05-30T18:58:23.505Z,76364.72
2023-05-30T19:00:56.070Z,76423.25
2023-05-30T19:03:30.328Z,76405.09
2023-05-30T19:06:05.253Z,76364.72
2023-05-30T19:08:40.393Z,76423.25
2023-05-30T19:11:16.255Z,76382.88
2023-05-30T19:13:48.738Z,76382.88
2023-05-30T19:16:21.371Z,76465.66
2023-05-30T19:18:55.166Z,76510.06
2023-05-30T19:21:30.190Z,76600.91
2023-05-30T19:24:02.630Z,76663.47
2023-05-30T19:26:35.323Z,76661.47
2023-05-30T19:29:07.725Z,76720.00
2023-05-30T19:31:40.648Z,76732.13
2023-05-30T19:34:13.207Z,76748.28
2023-05-30T19:36:45.769Z,76760.38
2023-05-30T19:39:18.520Z,76790.66
2023-05-30T19:41:51.062Z,76792.69
2023-05-30T19:44:23.539Z,76812.88
2023-05-30T19:46:56.336Z,76831.03
2023-05-30T19:49:30.765Z,76851.22
2023-05-30T19:52:03.691Z,76869.41
2023-05-30T19:54:36.202Z,76881.53
2023-05-30T19:57:08.767Z,76901.72
2023-05-30T19:59:41.275Z,76927.94
2023-05-30T20:02:13.765Z,76944.09
2023-05-30T20:04:46.478Z,76950.16
2023-05-30T20:07:18.980Z,76956.22
2023-05-30T20:09:51.568Z,76948.13
2023-05-30T20:12:24.220Z,76936.03
2023-05-30T20:14:56.702Z,76944.09
2023-05-30T20:17:29.439Z,76968.34
2023-05-30T20:20:04.214Z,76968.34
2023-05-30T20:22:36.764Z,76980.44
2023-05-30T20:25:09.664Z,76994.56
2023-05-30T20:27:42.179Z,77008.72
2023-05-30T20:30:15.778Z,77006.69
2023-05-30T20:32:48.322Z,77024.88
2023-05-30T20:35:21.099Z,77014.75
2023-05-30T20:37:53.616Z,77026.88
2023-05-30T20:40:26.437Z,77041.00
2023-05-30T20:42:58.910Z,77045.06
2023-05-30T20:45:31.734Z,77032.94
2023-05-30T20:48:04.385Z,77034.97
2023-05-30T20:50:36.965Z,77049.09
2023-05-30T20:53:09.461Z,77053.13
2023-05-30T20:55:42.448Z,77049.09
2023-05-30T20:58:18.012Z,77053.13
2023-05-30T21:00:50.871Z,77075.34
2023-05-30T21:03:23.532Z,77073.31
2023-05-30T21:05:56.179Z,77081.41
2023-05-30T21:08:28.691Z,77083.41
2023-05-30T21:11:01.484Z,77087.44
2023-05-30T21:13:34.191Z,77091.50
2023-05-30T21:16:07.041Z,77115.72
2023-05-30T21:18:39.756Z,77097.53
2023-05-30T21:21:12.163Z,77117.75
2023-05-30T21:23:44.670Z,77123.78
2023-05-30T21:26:17.093Z,77119.75
2023-05-30T21:28:49.565Z,77113.69
2023-05-30T21:31:22.569Z,77121.78
2023-05-30T21:33:55.726Z,77150.03
2023-05-30T21:36:28.324Z,77152.06
2023-05-30T21:39:00.878Z,77158.13
2023-05-30T21:41:33.341Z,77164.19
2023-05-30T21:44:06.429Z,77160.13
2023-05-30T21:46:39.108Z,77162.16
2023-05-30T21:49:11.914Z,77162.16
2023-05-30T21:51:44.494Z,77164.19
2023-05-30T21:54:40.606Z,77158.13
2023-05-30T21:57:15.393Z,77174.28
2023-05-30T21:59:47.946Z,77170.22
2023-05-30T22:02:20.477Z,77176.28
2023-05-30T22:04:52.926Z,77196.47
2023-05-30T22:07:26.475Z,77212.63
2023-05-30T22:09:58.994Z,77194.47
2023-05-30T22:12:31.621Z,77204.56
2023-05-30T22:15:05.458Z,77200.53
2023-05-30T22:17:40.288Z,77200.53
2023-05-30T22:20:13.771Z,77212.63
2023-05-30T22:22:46.506Z,77222.72
2023-05-30T22:25:18.944Z,77220.72
2023-05-30T22:27:51.390Z,77244.94
2023-05-30T22:30:23.952Z,77234.84
2023-05-30T22:32:56.592Z,77234.84
2023-05-30T22:35:30.102Z,77255.03
2023-05-30T22:38:02.555Z,77267.16
2023-05-30T22:40:35.040Z,77246.97
2023-05-30T22:43:07.458Z,77246.97
2023-05-30T22:45:39.968Z,77259.06
2023-05-30T22:48:12.463Z,77255.03
2023-05-30T22:50:44.972Z,77267.16
2023-05-30T22:53:17.426Z,77261.09
2023-05-30T22:55:49.967Z,77271.19
2023-05-30T22:58:22.414Z,77271.19
2023-05-30T23:00:54.909Z,77291.38
2023-05-30T23:03:27.717Z,77285.31
2023-05-30T23:06:00.525Z,77291.38
2023-05-30T23:08:32.925Z,77299.44
2023-05-30T23:11:05.543Z,77327.72
2023-05-30T23:13:38.141Z,77305.50
2023-05-30T23:16:10.798Z,77317.63
2023-05-30T23:18:43.362Z,77309.56
2023-05-30T23:21:15.960Z,77319.66
2023-05-30T23:23:48.410Z,77329.75
2023-05-30T23:26:21.312Z,77337.81
2023-05-30T23:28:53.789Z,77327.72
2023-05-30T23:31:26.926Z,77339.84
2023-05-30T23:33:59.533Z,77349.94
2023-05-30T23:36:32.037Z,77351.94
2023-05-30T23:39:04.469Z,77360.03
2023-05-30T23:41:37.076Z,77360.03
2023-05-30T23:44:09.685Z,77366.09
2023-05-30T23:46:42.203Z,77370.13
2023-05-30T23:49:16.400Z,77368.09
2023-05-30T23:51:48.902Z,77376.19
2023-05-30T23:54:22.368Z,77368.09
2023-05-30T23:56:54.879Z,77372.16
2023-05-30T23:59:27.449Z,77372.16
